Deatsville, Kentucky
Current Conditions -  °F | °C
As of 8:56 AM on Saturday 22 Nov 2014 (Local Time) from KSDF Reporting Station
Overcast Overcast  
Wind Chill:   Ceiling: 6500
Heat Index:   Visibility: 10mi
Dew Point:   Wind: 12mph
Humidity: 54%   Direction: 180°S
Pressure: 30.29"   Gusts: NA
Location:  37.9212°N, 85.4864°W
Report Text: KSDF 221356Z 18010KT 10SM FEW055 OVC065 09/01 A3029 RMK AO2 RAE18 SLP260 P0000 T00940006
Loading
Personal Weather Stations






























Interactive Weather Map New forecast layout! Learn more

10-Day Weather Forecast

Advertisements
Track Severe Weather on mobile